createdAt,value
2022-11-28T00:01:29.809Z,6.40
2022-11-28T00:03:57.427Z,6.40
2022-11-28T00:06:26.068Z,6.40
2022-11-28T00:08:54.184Z,6.40
2022-11-28T00:11:21.742Z,6.30
2022-11-28T00:13:49.349Z,6.40
2022-11-28T00:16:21.670Z,6.30
2022-11-28T00:18:50.824Z,6.30
2022-11-28T00:21:19.493Z,6.30
2022-11-28T00:23:48.700Z,6.30
2022-11-28T00:26:20.865Z,6.30
2022-11-28T00:28:48.478Z,6.20
2022-11-28T00:31:24.876Z,6.20
2022-11-28T00:33:53.141Z,6.20
2022-11-28T00:36:21.557Z,6.20
2022-11-28T00:38:50.238Z,6.20
2022-11-28T00:41:23.826Z,6.20
2022-11-28T00:43:52.089Z,6.20
2022-11-28T00:46:21.471Z,6.20
2022-11-28T00:48:49.308Z,6.10
2022-11-28T00:51:18.391Z,6.20
2022-11-28T00:53:48.063Z,6.30
2022-11-28T00:56:18.711Z,6.20
2022-11-28T00:58:49.511Z,6.20
2022-11-28T01:01:23.610Z,6.20
2022-11-28T01:03:53.115Z,6.20
2022-11-28T01:06:32.746Z,6.20
2022-11-28T01:09:02.330Z,6.30
2022-11-28T01:11:30.137Z,6.30
2022-11-28T01:14:00.080Z,6.30
2022-11-28T01:16:29.074Z,6.30
2022-11-28T01:18:57.186Z,6.30
2022-11-28T01:21:30.213Z,6.30
2022-11-28T01:23:58.024Z,6.20
2022-11-28T01:26:28.348Z,6.30
2022-11-28T01:28:56.248Z,6.30
2022-11-28T01:31:26.719Z,6.30
2022-11-28T01:33:55.558Z,6.30
2022-11-28T01:36:23.658Z,6.30
2022-11-28T01:38:52.033Z,6.30
2022-11-28T01:41:25.703Z,6.30
2022-11-28T01:44:05.871Z,6.30
2022-11-28T01:46:34.506Z,6.30
2022-11-28T01:49:17.401Z,6.30
2022-11-28T01:51:50.237Z,6.30
2022-11-28T01:54:20.611Z,6.30
2022-11-28T01:56:52.811Z,6.30
2022-11-28T01:59:21.465Z,6.30
2022-11-28T02:01:49.205Z,6.20
2022-11-28T02:04:16.833Z,6.30
2022-11-28T02:06:44.851Z,6.30
2022-11-28T02:09:14.085Z,6.30
2022-11-28T02:11:57.605Z,6.20
2022-11-28T02:14:44.287Z,6.30
2022-11-28T02:17:28.288Z,6.20
2022-11-28T02:20:07.629Z,6.20
2022-11-28T02:23:03.255Z,6.20
2022-11-28T02:25:42.870Z,6.20
2022-11-28T02:28:22.069Z,6.20
2022-11-28T02:31:23.554Z,6.20
2022-11-28T02:33:59.194Z,6.10
2022-11-28T02:36:43.073Z,6.10
2022-11-28T02:39:16.411Z,6.10
2022-11-28T02:42:01.091Z,6.10
2022-11-28T02:44:52.591Z,6.10
2022-11-28T02:47:37.793Z,6.10
2022-11-28T02:50:26.332Z,6.10
2022-11-28T02:53:10.324Z,6.10
2022-11-28T02:55:40.479Z,6.00
2022-11-28T02:58:09.704Z,6.00
2022-11-28T03:00:40.578Z,6.00
2022-11-28T03:03:13.931Z,6.00
2022-11-28T03:05:57.393Z,6.00
2022-11-28T03:08:36.626Z,6.00
2022-11-28T03:11:21.560Z,6.00
2022-11-28T03:14:05.117Z,6.00
2022-11-28T03:16:49.495Z,6.00
2022-11-28T03:19:25.630Z,5.90
2022-11-28T03:22:10.184Z,6.00
2022-11-28T03:24:44.735Z,6.00
2022-11-28T03:27:16.834Z,5.90
2022-11-28T03:29:51.703Z,5.90
2022-11-28T03:32:28.294Z,5.90
2022-11-28T03:35:05.999Z,5.90
2022-11-28T03:37:37.868Z,5.90
2022-11-28T03:40:10.911Z,5.90
2022-11-28T03:42:54.367Z,5.90
2022-11-28T03:45:25.511Z,5.90
2022-11-28T03:48:00.910Z,5.90
2022-11-28T03:50:44.482Z,5.90
2022-11-28T03:53:20.187Z,5.90
2022-11-28T03:56:02.162Z,5.80
2022-11-28T03:58:55.288Z,5.80
2022-11-28T04:01:31.509Z,5.80
2022-11-28T04:04:18.147Z,5.80
2022-11-28T04:07:09.239Z,5.80
2022-11-28T04:09:42.043Z,5.80
2022-11-28T04:12:23.705Z,5.80
2022-11-28T04:15:02.533Z,5.70
2022-11-28T04:18:18.048Z,5.80
2022-11-28T04:25:39.741Z,5.80
2022-11-28T04:28:48.418Z,5.70
2022-11-28T04:35:56.600Z,5.70
2022-11-28T04:39:07.530Z,5.70
2022-11-28T04:42:08.215Z,5.70
2022-11-28T04:48:22.571Z,5.70
2022-11-28T04:51:15.359Z,5.70
2022-11-28T04:57:57.306Z,5.70
2022-11-28T05:00:50.126Z,5.60
2022-11-28T05:03:43.078Z,5.60
2022-11-28T05:07:09.293Z,5.60
2022-11-28T05:10:09.913Z,5.60
2022-11-28T05:12:57.668Z,5.60
2022-11-28T05:22:07.307Z,5.60
2022-11-28T05:24:52.957Z,5.60
2022-11-28T05:27:26.398Z,5.60
2022-11-28T05:29:53.971Z,5.50
2022-11-28T05:32:21.857Z,5.60
2022-11-28T05:34:49.480Z,5.60
2022-11-28T05:37:17.096Z,5.60
2022-11-28T05:39:44.894Z,5.60
2022-11-28T05:42:12.907Z,5.70
2022-11-28T05:44:40.503Z,5.60
2022-11-28T05:47:08.256Z,5.60
2022-11-28T05:49:35.893Z,5.60
2022-11-28T05:52:03.606Z,5.60
2022-11-28T05:54:31.552Z,5.60
2022-11-28T05:56:59.286Z,5.50
2022-11-28T05:59:26.977Z,5.60
2022-11-28T06:01:54.529Z,5.60
2022-11-28T06:04:22.224Z,5.60
2022-11-28T06:06:51.112Z,5.60
2022-11-28T06:09:23.230Z,5.60
2022-11-28T06:11:53.368Z,5.60
2022-11-28T06:14:20.994Z,5.60
2022-11-28T06:16:51.053Z,5.60
2022-11-28T06:19:18.836Z,5.60
2022-11-28T06:21:46.714Z,5.60
2022-11-28T06:24:14.569Z,5.60
2022-11-28T06:26:42.182Z,5.50
2022-11-28T06:29:09.786Z,5.60
2022-11-28T06:31:37.499Z,5.60
2022-11-28T06:34:05.243Z,5.60
2022-11-28T06:36:33.026Z,5.60
2022-11-28T06:39:03.669Z,5.60
2022-11-28T06:41:31.255Z,5.60
2022-11-28T06:43:58.863Z,5.60
2022-11-28T06:46:26.522Z,5.60
2022-11-28T06:48:54.291Z,5.60
2022-11-28T06:51:22.195Z,5.60
2022-11-28T06:53:50.827Z,5.60
2022-11-28T06:56:20.049Z,5.60
2022-11-28T06:58:53.453Z,5.60
2022-11-28T07:01:22.993Z,5.60
2022-11-28T07:03:59.471Z,5.70
2022-11-28T07:06:30.070Z,5.70
2022-11-28T07:09:00.950Z,5.70
2022-11-28T07:11:31.447Z,5.70
2022-11-28T07:14:08.243Z,5.70
2022-11-28T07:16:36.115Z,5.70
2022-11-28T07:19:04.281Z,5.80
2022-11-28T07:21:32.541Z,5.80
2022-11-28T07:24:00.755Z,5.90
2022-11-28T07:26:28.502Z,5.80
2022-11-28T07:28:58.190Z,5.90
2022-11-28T07:31:28.713Z,5.90
2022-11-28T07:33:56.382Z,5.80
2022-11-28T07:36:26.760Z,5.80
2022-11-28T07:38:57.112Z,5.80
2022-11-28T07:41:26.894Z,5.90
2022-11-28T07:44:00.450Z,5.90
2022-11-28T07:46:29.627Z,5.90
2022-11-28T07:48:57.555Z,6.00
2022-11-28T07:51:28.450Z,6.00
2022-11-28T07:53:56.312Z,6.10
2022-11-28T07:56:35.028Z,6.10
2022-11-28T07:59:07.838Z,6.20
2022-11-28T08:01:36.476Z,6.20
2022-11-28T08:04:06.906Z,6.20
2022-11-28T08:06:39.892Z,6.20
2022-11-28T08:09:08.212Z,6.20
2022-11-28T08:11:36.239Z,6.20
2022-11-28T08:14:05.204Z,6.20
2022-11-28T08:16:32.899Z,6.30
2022-11-28T08:19:02.062Z,6.30
2022-11-28T08:21:32.322Z,6.30
2022-11-28T08:24:02.267Z,6.30
2022-11-28T08:26:31.948Z,6.30
2022-11-28T08:29:01.281Z,6.30
2022-11-28T08:31:32.748Z,6.40
2022-11-28T08:34:02.321Z,6.40
2022-11-28T08:36:30.091Z,6.40
2022-11-28T08:39:23.580Z,6.40
2022-11-28T08:41:59.736Z,6.40
2022-11-28T08:44:30.394Z,6.50
2022-11-28T08:46:58.247Z,6.50
2022-11-28T08:49:33.342Z,6.50
2022-11-28T08:52:14.349Z,6.60
2022-11-28T08:54:42.210Z,6.60
2022-11-28T08:57:21.643Z,6.70
2022-11-28T09:00:19.445Z,6.70
2022-11-28T09:02:49.587Z,6.60
2022-11-28T09:05:38.143Z,6.70
2022-11-28T09:08:20.711Z,6.80
2022-11-28T09:11:10.013Z,6.80
2022-11-28T09:14:13.172Z,6.80
2022-11-28T09:16:41.459Z,6.80
2022-11-28T09:19:33.438Z,6.90
2022-11-28T09:22:25.130Z,6.90
2022-11-28T09:24:55.739Z,6.90
2022-11-28T09:27:23.350Z,6.90
2022-11-28T09:29:51.020Z,7.00
2022-11-28T09:32:18.611Z,7.00
2022-11-28T09:35:28.196Z,7.10
2022-11-28T09:38:32.303Z,7.10
2022-11-28T09:41:22.733Z,7.10
2022-11-28T09:43:54.984Z,7.10
2022-11-28T09:46:29.820Z,7.10
2022-11-28T09:49:02.005Z,7.10
2022-11-28T09:51:51.265Z,7.10
2022-11-28T09:54:42.793Z,7.20
2022-11-28T09:57:59.833Z,7.10
2022-11-28T10:01:30.868Z,7.20
2022-11-28T10:04:21.632Z,7.30
2022-11-28T10:07:25.602Z,7.30
2022-11-28T10:16:55.416Z,7.30
2022-11-28T10:20:05.231Z,7.40
2022-11-28T10:23:27.859Z,7.30
2022-11-28T10:26:41.320Z,7.20
2022-11-28T10:33:53.795Z,7.30
2022-11-28T10:37:14.939Z,7.30
2022-11-28T10:40:21.234Z,7.40
2022-11-28T10:46:41.859Z,7.40
2022-11-28T10:49:51.647Z,7.40
2022-11-28T10:53:14.733Z,7.50
2022-11-28T10:56:30.113Z,7.40
2022-11-28T11:02:50.755Z,7.40
2022-11-28T11:06:11.815Z,7.50
2022-11-28T11:08:55.299Z,7.50
2022-11-28T11:12:04.876Z,7.60
2022-11-28T11:18:05.691Z,7.60
2022-11-28T11:21:40.756Z,7.60
2022-11-28T11:25:05.483Z,7.60
2022-11-28T11:27:40.513Z,7.70
2022-11-28T11:30:45.060Z,7.70
2022-11-28T11:34:17.280Z,7.60
2022-11-28T11:37:03.550Z,7.70
2022-11-28T11:40:12.459Z,7.60
2022-11-28T11:43:16.784Z,7.60
2022-11-28T11:46:17.343Z,7.60
2022-11-28T11:49:13.471Z,7.60
2022-11-28T11:55:12.413Z,7.70
2022-11-28T11:58:09.864Z,7.60
2022-11-28T12:01:32.501Z,7.60
2022-11-28T12:04:51.071Z,7.60
2022-11-28T12:08:12.623Z,7.50
2022-11-28T12:11:31.645Z,7.50
2022-11-28T12:14:51.356Z,7.40
2022-11-28T12:18:17.670Z,7.50
2022-11-28T12:21:13.440Z,7.40
2022-11-28T12:24:12.515Z,7.40
2022-11-28T12:30:13.591Z,7.50
2022-11-28T12:33:12.787Z,7.50
2022-11-28T12:36:13.862Z,7.40
2022-11-28T12:39:12.349Z,7.50
2022-11-28T12:42:24.112Z,7.50
2022-11-28T12:49:01.272Z,7.60
2022-11-28T12:52:04.332Z,7.50
2022-11-28T12:55:16.446Z,7.50
2022-11-28T13:04:57.193Z,7.50
2022-11-28T13:11:58.247Z,7.50
2022-11-28T13:15:09.141Z,7.60
2022-11-28T13:22:27.788Z,7.60
2022-11-28T13:28:43.034Z,7.50
2022-11-28T13:31:48.187Z,7.50
2022-11-28T13:34:24.109Z,7.50
2022-11-28T13:41:52.731Z,7.60
2022-11-28T13:44:31.542Z,7.60
2022-11-28T13:47:21.756Z,7.60
2022-11-28T13:49:49.524Z,7.60
2022-11-28T13:52:20.165Z,7.60
2022-11-28T13:54:50.569Z,7.60
2022-11-28T13:57:29.240Z,7.60
2022-11-28T14:00:27.836Z,7.60
2022-11-28T14:02:59.985Z,7.70
2022-11-28T14:05:41.680Z,7.70
2022-11-28T14:08:29.818Z,7.70
2022-11-28T14:11:27.995Z,7.60
2022-11-28T14:14:07.765Z,7.60
2022-11-28T14:16:51.607Z,7.60
2022-11-28T14:19:37.550Z,7.60
2022-11-28T14:22:23.684Z,7.60
2022-11-28T14:25:11.552Z,7.60
2022-11-28T14:27:47.133Z,7.60
2022-11-28T14:30:34.993Z,7.50
2022-11-28T14:33:38.417Z,7.50
2022-11-28T14:40:47.144Z,7.50
2022-11-28T14:43:23.743Z,7.50
2022-11-28T14:45:52.729Z,7.50
2022-11-28T14:48:23.183Z,7.50
2022-11-28T14:51:01.018Z,7.40
2022-11-28T14:53:36.274Z,7.40
2022-11-28T14:56:30.593Z,7.40
2022-11-28T14:59:03.477Z,7.40
2022-11-28T15:01:43.840Z,7.40
2022-11-28T15:04:23.445Z,7.40
2022-11-28T15:06:51.722Z,7.50
2022-11-28T15:09:37.174Z,7.40
2022-11-28T15:12:31.842Z,7.30
2022-11-28T15:15:00.083Z,7.30
2022-11-28T15:17:33.398Z,7.30
2022-11-28T15:20:13.225Z,7.30
2022-11-28T15:22:43.004Z,7.30
2022-11-28T17:14:22.242Z,7.10
2022-11-28T17:16:50.099Z,7.10
2022-11-28T17:19:18.065Z,7.20
2022-11-28T17:21:50.680Z,7.20
2022-11-28T17:24:26.476Z,7.10
2022-11-28T17:26:55.028Z,7.10
2022-11-28T17:29:23.028Z,7.20
2022-11-28T17:31:50.842Z,7.20
2022-11-28T17:34:26.772Z,7.10
2022-11-28T17:36:54.473Z,7.10
2022-11-28T17:39:22.288Z,7.20
2022-11-28T17:44:37.571Z,7.20
2022-11-28T17:47:05.598Z,7.10
2022-11-28T17:49:33.562Z,7.20
2022-11-28T17:52:03.883Z,7.20
2022-11-28T17:54:47.357Z,7.10
2022-11-28T18:00:43.076Z,7.20
2022-11-28T18:03:20.281Z,7.10
2022-11-28T18:05:49.504Z,7.20
2022-11-28T18:08:22.138Z,7.20
2022-11-28T18:10:50.376Z,7.20
2022-11-28T18:13:21.011Z,7.20
2022-11-28T18:15:52.913Z,7.20
2022-11-28T18:18:20.547Z,7.20
2022-11-28T18:20:48.238Z,7.20
2022-11-28T18:23:15.829Z,7.20
2022-11-28T18:25:44.482Z,7.20
2022-11-28T18:28:18.571Z,7.20
2022-11-28T18:30:49.115Z,7.10
2022-11-28T18:33:16.882Z,7.10
2022-11-28T18:35:47.740Z,7.10
2022-11-28T18:38:18.178Z,7.20
2022-11-28T18:40:45.727Z,7.20
2022-11-28T18:43:13.308Z,7.10
2022-11-28T18:45:40.930Z,7.20
2022-11-28T18:48:08.583Z,7.10
2022-11-28T18:50:36.223Z,7.20
2022-11-28T18:53:03.852Z,7.20
2022-11-28T18:55:31.393Z,7.10
2022-11-28T18:57:59.767Z,7.20
2022-11-28T19:00:27.423Z,7.20
2022-11-28T19:02:55.231Z,7.20
2022-11-28T19:05:22.810Z,7.20
2022-11-28T19:07:50.475Z,7.20
2022-11-28T19:10:18.185Z,7.20
2022-11-28T19:12:46.057Z,7.20
2022-11-28T19:15:13.738Z,7.10
2022-11-28T19:17:41.351Z,7.20
2022-11-28T19:20:11.010Z,7.20
2022-11-28T19:22:38.576Z,7.20
2022-11-28T19:25:06.854Z,7.20
2022-11-28T19:27:34.517Z,7.20
2022-11-28T19:30:02.208Z,7.20
2022-11-28T19:32:29.888Z,7.30
2022-11-28T19:34:57.518Z,7.20
2022-11-28T19:37:25.098Z,7.20
2022-11-28T19:39:52.662Z,7.20
2022-11-28T19:42:20.228Z,7.30
2022-11-28T19:44:47.812Z,7.30
2022-11-28T19:47:15.381Z,7.30
2022-11-28T19:49:43.194Z,7.30
2022-11-28T19:52:11.096Z,7.20
2022-11-28T19:54:38.717Z,7.20
2022-11-28T19:57:10.364Z,7.20
2022-11-28T19:59:37.992Z,7.20
2022-11-28T20:02:06.188Z,7.20
2022-11-28T20:04:33.841Z,7.30
2022-11-28T20:07:01.405Z,7.30
2022-11-28T20:09:29.059Z,7.30
2022-11-28T20:11:56.677Z,7.30
2022-11-28T20:14:24.248Z,7.20
2022-11-28T20:16:51.950Z,7.30
2022-11-28T20:19:21.853Z,7.20
2022-11-28T20:21:49.385Z,7.20
2022-11-28T20:24:19.153Z,7.30
2022-11-28T20:26:47.103Z,7.30
2022-11-28T20:29:16.803Z,7.20
2022-11-28T20:31:46.563Z,7.30
2022-11-28T20:34:15.604Z,7.20
2022-11-28T20:36:43.733Z,7.30
2022-11-28T20:39:12.330Z,7.30
2022-11-28T20:41:40.044Z,7.20
2022-11-28T20:44:08.208Z,7.20
2022-11-28T20:46:35.925Z,7.30
2022-11-28T20:49:05.649Z,7.30
2022-11-28T20:51:34.933Z,7.30
2022-11-28T20:54:04.750Z,7.30
2022-11-28T20:56:46.499Z,7.30
2022-11-28T20:59:22.799Z,7.30
2022-11-28T21:01:50.734Z,7.30
2022-11-28T21:04:18.910Z,7.30
2022-11-28T21:06:48.909Z,7.30
2022-11-28T21:09:18.451Z,7.30
2022-11-28T21:12:02.844Z,7.30
2022-11-28T21:14:30.504Z,7.30
2022-11-28T21:16:58.873Z,7.30
2022-11-28T21:19:26.600Z,7.40
2022-11-28T21:21:54.308Z,7.30
2022-11-28T21:24:21.955Z,7.30
2022-11-28T21:26:53.506Z,7.30
2022-11-28T21:29:23.566Z,7.30
2022-11-28T21:31:51.744Z,7.30
2022-11-28T21:34:19.628Z,7.30
2022-11-28T21:36:47.766Z,7.30
2022-11-28T21:39:20.344Z,7.30
2022-11-28T21:41:48.406Z,7.30
2022-11-28T21:44:16.080Z,7.20
2022-11-28T21:46:43.762Z,7.20
2022-11-28T21:49:11.356Z,7.20
2022-11-28T21:51:39.065Z,7.20
2022-11-28T21:54:06.733Z,7.20
2022-11-28T21:56:39.803Z,7.20
2022-11-28T21:59:10.151Z,7.20
2022-11-28T22:01:37.823Z,7.30
2022-11-28T22:04:06.270Z,7.20
2022-11-28T22:06:33.993Z,7.20
2022-11-28T22:09:08.629Z,7.30
2022-11-28T22:11:37.100Z,7.20
2022-11-28T22:14:04.991Z,7.30
2022-11-28T22:16:32.771Z,7.30
2022-11-28T22:19:01.131Z,7.30
2022-11-28T22:21:52.285Z,7.30
2022-11-28T22:24:17.126Z,7.30
2022-11-28T22:26:44.714Z,7.20
2022-11-28T22:29:12.342Z,7.30
2022-11-28T22:31:40.052Z,7.20
2022-11-28T22:34:09.217Z,7.30
2022-11-28T22:36:37.547Z,7.20
2022-11-28T22:39:06.124Z,7.20
2022-11-28T22:41:36.202Z,7.30
2022-11-28T22:47:19.620Z,7.30
2022-11-28T22:50:23.871Z,7.30
2022-11-28T22:53:23.509Z,7.30
2022-11-28T22:56:55.684Z,7.20
2022-11-28T22:59:41.843Z,7.20
2022-11-28T23:02:22.783Z,7.20
2022-11-28T23:04:50.473Z,7.20
2022-11-28T23:07:18.093Z,7.30
2022-11-28T23:09:45.749Z,7.20
2022-11-28T23:12:13.334Z,7.20
2022-11-28T23:14:41.080Z,7.20
2022-11-28T23:17:08.768Z,7.20
2022-11-28T23:19:36.330Z,7.20
2022-11-28T23:22:04.604Z,7.20
2022-11-28T23:24:32.128Z,7.20
2022-11-28T23:26:59.751Z,7.20
2022-11-28T23:29:27.304Z,7.20
2022-11-28T23:31:54.917Z,7.20
2022-11-28T23:34:22.543Z,7.20
2022-11-28T23:36:50.124Z,7.20
2022-11-28T23:39:21.617Z,7.20
2022-11-28T23:41:50.202Z,7.20
2022-11-28T23:44:19.037Z,7.20
2022-11-28T23:46:46.938Z,7.20
2022-11-28T23:49:14.927Z,7.20
2022-11-28T23:51:42.636Z,7.20
2022-11-28T23:54:11.856Z,7.20
2022-11-28T23:56:41.132Z,7.20
2022-11-28T23:59:10.318Z,7.30
